sensor_id;sensor_type;location;lat;lon;timestamp;P1;durP1;ratioP1;P2;durP2;ratioP2
43620;SDS011;29213;50.770;7.298;2023-03-14T00:00:03;4.38;;;1.25;;
43620;SDS011;29213;50.770;7.298;2023-03-14T00:02:36;3.65;;;1.20;;
43620;SDS011;29213;50.770;7.298;2023-03-14T00:05:02;6.97;;;1.70;;
43620;SDS011;29213;50.770;7.298;2023-03-14T00:07:32;3.63;;;1.35;;
43620;SDS011;29213;50.770;7.298;2023-03-14T00:12:29;5.47;;;1.45;;
43620;SDS011;29213;50.770;7.298;2023-03-14T00:14:55;4.85;;;1.40;;
43620;SDS011;29213;50.770;7.298;2023-03-14T00:17:20;6.20;;;1.55;;
43620;SDS011;29213;50.770;7.298;2023-03-14T00:19:45;5.68;;;1.45;;
43620;SDS011;29213;50.770;7.298;2023-03-14T00:22:11;4.30;;;1.40;;
43620;SDS011;29213;50.770;7.298;2023-03-14T00:24:36;6.38;;;1.42;;
43620;SDS011;29213;50.770;7.298;2023-03-14T00:27:01;5.28;;;1.70;;
43620;SDS011;29213;50.770;7.298;2023-03-14T00:29:27;6.85;;;1.70;;
43620;SDS011;29213;50.770;7.298;2023-03-14T00:31:52;5.32;;;1.73;;
43620;SDS011;29213;50.770;7.298;2023-03-14T00:34:18;5.28;;;1.65;;
43620;SDS011;29213;50.770;7.298;2023-03-14T00:36:44;4.95;;;1.77;;
43620;SDS011;29213;50.770;7.298;2023-03-14T00:39:09;5.80;;;1.55;;
43620;SDS011;29213;50.770;7.298;2023-03-14T00:41:35;6.57;;;1.75;;
43620;SDS011;29213;50.770;7.298;2023-03-14T00:44:00;4.32;;;1.38;;
43620;SDS011;29213;50.770;7.298;2023-03-14T00:46:26;8.32;;;1.70;;
43620;SDS011;29213;50.770;7.298;2023-03-14T00:48:51;5.63;;;1.40;;
43620;SDS011;29213;50.770;7.298;2023-03-14T00:51:16;4.05;;;1.20;;
43620;SDS011;29213;50.770;7.298;2023-03-14T00:53:42;4.28;;;1.38;;
43620;SDS011;29213;50.770;7.298;2023-03-14T00:56:09;7.45;;;1.60;;
43620;SDS011;29213;50.770;7.298;2023-03-14T00:58:36;6.82;;;1.70;;
43620;SDS011;29213;50.770;7.298;2023-03-14T01:01:05;5.50;;;1.52;;
43620;SDS011;29213;50.770;7.298;2023-03-14T01:03:35;8.40;;;1.80;;
43620;SDS011;29213;50.770;7.298;2023-03-14T01:06:09;6.18;;;1.50;;
43620;SDS011;29213;50.770;7.298;2023-03-14T01:08:37;5.50;;;1.40;;
43620;SDS011;29213;50.770;7.298;2023-03-14T01:11:09;6.50;;;1.67;;
43620;SDS011;29213;50.770;7.298;2023-03-14T01:13:37;5.45;;;1.50;;
43620;SDS011;29213;50.770;7.298;2023-03-14T01:16:03;4.88;;;1.45;;
43620;SDS011;29213;50.770;7.298;2023-03-14T01:18:32;7.60;;;1.42;;
43620;SDS011;29213;50.770;7.298;2023-03-14T01:20:58;6.55;;;1.70;;
43620;SDS011;29213;50.770;7.298;2023-03-14T01:23:23;7.55;;;1.80;;
43620;SDS011;29213;50.770;7.298;2023-03-14T01:25:49;4.68;;;1.30;;
43620;SDS011;29213;50.770;7.298;2023-03-14T01:28:14;7.53;;;1.63;;
43620;SDS011;29213;50.770;7.298;2023-03-14T01:30:41;4.65;;;1.35;;
43620;SDS011;29213;50.770;7.298;2023-03-14T01:33:06;5.80;;;1.42;;
43620;SDS011;29213;50.770;7.298;2023-03-14T01:35:32;5.65;;;1.40;;
43620;SDS011;29213;50.770;7.298;2023-03-14T01:37:57;6.47;;;1.60;;
43620;SDS011;29213;50.770;7.298;2023-03-14T01:40:23;5.43;;;1.48;;
43620;SDS011;29213;50.770;7.298;2023-03-14T01:42:55;5.95;;;1.40;;
43620;SDS011;29213;50.770;7.298;2023-03-14T01:48:25;5.63;;;1.63;;
43620;SDS011;29213;50.770;7.298;2023-03-14T01:50:53;3.25;;;1.40;;
43620;SDS011;29213;50.770;7.298;2023-03-14T01:53:19;5.25;;;1.55;;
43620;SDS011;29213;50.770;7.298;2023-03-14T01:55:49;5.45;;;1.80;;
43620;SDS011;29213;50.770;7.298;2023-03-14T01:58:16;7.57;;;1.75;;
43620;SDS011;29213;50.770;7.298;2023-03-14T02:00:42;7.68;;;1.98;;
43620;SDS011;29213;50.770;7.298;2023-03-14T02:03:11;5.93;;;1.50;;
43620;SDS011;29213;50.770;7.298;2023-03-14T02:05:42;5.18;;;1.40;;
43620;SDS011;29213;50.770;7.298;2023-03-14T02:08:12;5.90;;;1.52;;
43620;SDS011;29213;50.770;7.298;2023-03-14T02:10:41;5.13;;;1.20;;
43620;SDS011;29213;50.770;7.298;2023-03-14T02:13:09;4.63;;;1.30;;
43620;SDS011;29213;50.770;7.298;2023-03-14T02:15:36;6.28;;;1.85;;
43620;SDS011;29213;50.770;7.298;2023-03-14T02:18:03;5.28;;;1.40;;
43620;SDS011;29213;50.770;7.298;2023-03-14T02:23:00;5.55;;;1.67;;
43620;SDS011;29213;50.770;7.298;2023-03-14T02:25:40;5.97;;;1.58;;
43620;SDS011;29213;50.770;7.298;2023-03-14T02:28:07;5.53;;;1.52;;
43620;SDS011;29213;50.770;7.298;2023-03-14T02:30:33;5.38;;;1.48;;
43620;SDS011;29213;50.770;7.298;2023-03-14T02:32:59;6.43;;;1.75;;
43620;SDS011;29213;50.770;7.298;2023-03-14T02:35:30;3.88;;;1.70;;
43620;SDS011;29213;50.770;7.298;2023-03-14T02:38:02;5.18;;;1.33;;
43620;SDS011;29213;50.770;7.298;2023-03-14T02:40:33;6.97;;;1.48;;
43620;SDS011;29213;50.770;7.298;2023-03-14T02:42:58;6.28;;;1.75;;
43620;SDS011;29213;50.770;7.298;2023-03-14T02:47:52;7.10;;;1.80;;
43620;SDS011;29213;50.770;7.298;2023-03-14T02:50:22;5.45;;;1.55;;
43620;SDS011;29213;50.770;7.298;2023-03-14T02:52:52;4.78;;;1.55;;
43620;SDS011;29213;50.770;7.298;2023-03-14T02:55:21;5.55;;;1.48;;
43620;SDS011;29213;50.770;7.298;2023-03-14T03:00:13;5.82;;;1.52;;
43620;SDS011;29213;50.770;7.298;2023-03-14T03:02:39;6.10;;;1.55;;
43620;SDS011;29213;50.770;7.298;2023-03-14T03:05:05;4.47;;;1.60;;
43620;SDS011;29213;50.770;7.298;2023-03-14T03:07:31;7.75;;;1.90;;
43620;SDS011;29213;50.770;7.298;2023-03-14T03:09:56;5.13;;;1.63;;
43620;SDS011;29213;50.770;7.298;2023-03-14T03:12:21;7.55;;;1.90;;
43620;SDS011;29213;50.770;7.298;2023-03-14T03:14:47;7.50;;;1.80;;
43620;SDS011;29213;50.770;7.298;2023-03-14T03:17:12;4.70;;;1.73;;
43620;SDS011;29213;50.770;7.298;2023-03-14T03:19:37;7.13;;;1.95;;
43620;SDS011;29213;50.770;7.298;2023-03-14T03:22:03;8.10;;;1.77;;
43620;SDS011;29213;50.770;7.298;2023-03-14T03:24:28;6.30;;;1.92;;
43620;SDS011;29213;50.770;7.298;2023-03-14T03:26:54;7.30;;;2.00;;
43620;SDS011;29213;50.770;7.298;2023-03-14T03:29:19;5.68;;;1.85;;
43620;SDS011;29213;50.770;7.298;2023-03-14T03:31:45;7.07;;;1.63;;
43620;SDS011;29213;50.770;7.298;2023-03-14T03:34:11;3.97;;;1.30;;
43620;SDS011;29213;50.770;7.298;2023-03-14T03:36:37;5.47;;;1.48;;
43620;SDS011;29213;50.770;7.298;2023-03-14T03:39:03;6.63;;;1.58;;
43620;SDS011;29213;50.770;7.298;2023-03-14T03:41:29;6.20;;;1.70;;
43620;SDS011;29213;50.770;7.298;2023-03-14T03:43:55;4.20;;;1.58;;
43620;SDS011;29213;50.770;7.298;2023-03-14T03:46:21;5.57;;;1.63;;
43620;SDS011;29213;50.770;7.298;2023-03-14T03:48:46;5.72;;;1.70;;
43620;SDS011;29213;50.770;7.298;2023-03-14T03:51:15;5.75;;;1.70;;
43620;SDS011;29213;50.770;7.298;2023-03-14T03:53:41;5.75;;;1.63;;
43620;SDS011;29213;50.770;7.298;2023-03-14T03:56:07;6.05;;;1.77;;
43620;SDS011;29213;50.770;7.298;2023-03-14T03:58:34;4.38;;;1.40;;
43620;SDS011;29213;50.770;7.298;2023-03-14T04:00:59;4.70;;;1.50;;
43620;SDS011;29213;50.770;7.298;2023-03-14T04:03:24;4.70;;;1.42;;
43620;SDS011;29213;50.770;7.298;2023-03-14T04:05:57;4.72;;;1.35;;
43620;SDS011;29213;50.770;7.298;2023-03-14T04:08:24;6.88;;;1.60;;
43620;SDS011;29213;50.770;7.298;2023-03-14T04:10:49;5.13;;;1.20;;
43620;SDS011;29213;50.770;7.298;2023-03-14T04:13:18;4.70;;;1.30;;
43620;SDS011;29213;50.770;7.298;2023-03-14T04:15:44;5.07;;;1.30;;
43620;SDS011;29213;50.770;7.298;2023-03-14T04:18:09;4.22;;;1.50;;
43620;SDS011;29213;50.770;7.298;2023-03-14T04:20:34;4.28;;;1.38;;
43620;SDS011;29213;50.770;7.298;2023-03-14T04:23:00;4.78;;;1.13;;
43620;SDS011;29213;50.770;7.298;2023-03-14T04:25:25;3.63;;;1.20;;
43620;SDS011;29213;50.770;7.298;2023-03-14T04:27:50;5.40;;;1.25;;
43620;SDS011;29213;50.770;7.298;2023-03-14T04:30:16;4.97;;;1.17;;
43620;SDS011;29213;50.770;7.298;2023-03-14T04:32:41;3.30;;;1.00;;
43620;SDS011;29213;50.770;7.298;2023-03-14T04:35:07;4.05;;;1.23;;
43620;SDS011;29213;50.770;7.298;2023-03-14T04:37:32;2.80;;;1.00;;
43620;SDS011;29213;50.770;7.298;2023-03-14T04:39:58;5.10;;;1.20;;
43620;SDS011;29213;50.770;7.298;2023-03-14T04:42:23;4.00;;;1.00;;
43620;SDS011;29213;50.770;7.298;2023-03-14T04:44:48;3.92;;;1.00;;
43620;SDS011;29213;50.770;7.298;2023-03-14T04:47:15;1.77;;;0.80;;
43620;SDS011;29213;50.770;7.298;2023-03-14T04:49:40;4.13;;;1.00;;
43620;SDS011;29213;50.770;7.298;2023-03-14T04:52:05;3.72;;;0.95;;
43620;SDS011;29213;50.770;7.298;2023-03-14T04:54:31;4.03;;;0.82;;
43620;SDS011;29213;50.770;7.298;2023-03-14T04:56:56;1.85;;;0.70;;
43620;SDS011;29213;50.770;7.298;2023-03-14T04:59:22;3.83;;;0.93;;
43620;SDS011;29213;50.770;7.298;2023-03-14T05:01:47;2.53;;;0.80;;
43620;SDS011;29213;50.770;7.298;2023-03-14T05:04:14;3.92;;;0.98;;
43620;SDS011;29213;50.770;7.298;2023-03-14T05:06:40;2.08;;;0.60;;
43620;SDS011;29213;50.770;7.298;2023-03-14T05:09:07;2.15;;;0.63;;
43620;SDS011;29213;50.770;7.298;2023-03-14T05:11:33;1.92;;;0.88;;
43620;SDS011;29213;50.770;7.298;2023-03-14T05:13:58;2.88;;;0.63;;
43620;SDS011;29213;50.770;7.298;2023-03-14T05:16:23;1.90;;;0.52;;
43620;SDS011;29213;50.770;7.298;2023-03-14T05:18:49;1.13;;;0.50;;
43620;SDS011;29213;50.770;7.298;2023-03-14T05:21:15;1.00;;;0.50;;
43620;SDS011;29213;50.770;7.298;2023-03-14T05:23:41;1.90;;;0.60;;
43620;SDS011;29213;50.770;7.298;2023-03-14T05:26:06;1.40;;;0.50;;
43620;SDS011;29213;50.770;7.298;2023-03-14T05:28:32;0.88;;;0.57;;
43620;SDS011;29213;50.770;7.298;2023-03-14T05:30:57;1.70;;;0.50;;
43620;SDS011;29213;50.770;7.298;2023-03-14T05:33:22;1.10;;;0.55;;
43620;SDS011;29213;50.770;7.298;2023-03-14T05:35:48;3.38;;;0.50;;
43620;SDS011;29213;50.770;7.298;2023-03-14T05:38:13;0.88;;;0.38;;
43620;SDS011;29213;50.770;7.298;2023-03-14T05:40:38;0.95;;;0.40;;
43620;SDS011;29213;50.770;7.298;2023-03-14T05:43:04;1.38;;;0.55;;
43620;SDS011;29213;50.770;7.298;2023-03-14T05:45:29;1.33;;;0.50;;
43620;SDS011;29213;50.770;7.298;2023-03-14T05:47:55;0.68;;;0.35;;
43620;SDS011;29213;50.770;7.298;2023-03-14T05:50:20;0.90;;;0.30;;
43620;SDS011;29213;50.770;7.298;2023-03-14T05:52:45;0.65;;;0.40;;
43620;SDS011;29213;50.770;7.298;2023-03-14T05:55:11;0.75;;;0.47;;
43620;SDS011;29213;50.770;7.298;2023-03-14T05:57:36;1.77;;;0.57;;
43620;SDS011;29213;50.770;7.298;2023-03-14T06:00:02;0.95;;;0.43;;
43620;SDS011;29213;50.770;7.298;2023-03-14T06:02:28;1.35;;;0.50;;
43620;SDS011;29213;50.770;7.298;2023-03-14T06:04:53;0.57;;;0.40;;
43620;SDS011;29213;50.770;7.298;2023-03-14T06:07:18;1.95;;;0.50;;
43620;SDS011;29213;50.770;7.298;2023-03-14T06:09:44;0.30;;;0.30;;
43620;SDS011;29213;50.770;7.298;2023-03-14T06:12:09;1.35;;;0.50;;
43620;SDS011;29213;50.770;7.298;2023-03-14T06:14:34;1.85;;;0.50;;
43620;SDS011;29213;50.770;7.298;2023-03-14T06:17:00;0.43;;;0.38;;
43620;SDS011;29213;50.770;7.298;2023-03-14T06:19:25;1.95;;;0.40;;
43620;SDS011;29213;50.770;7.298;2023-03-14T06:21:51;1.45;;;0.50;;
43620;SDS011;29213;50.770;7.298;2023-03-14T06:24:16;1.65;;;0.40;;
43620;SDS011;29213;50.770;7.298;2023-03-14T06:26:42;1.38;;;0.50;;
43620;SDS011;29213;50.770;7.298;2023-03-14T06:29:07;0.70;;;0.40;;
43620;SDS011;29213;50.770;7.298;2023-03-14T06:31:33;0.55;;;0.40;;
43620;SDS011;29213;50.770;7.298;2023-03-14T06:33:59;1.27;;;0.47;;
43620;SDS011;29213;50.770;7.298;2023-03-14T06:36:25;0.57;;;0.40;;
43620;SDS011;29213;50.770;7.298;2023-03-14T06:38:50;3.13;;;1.33;;
43620;SDS011;29213;50.770;7.298;2023-03-14T06:41:15;0.77;;;0.45;;
43620;SDS011;29213;50.770;7.298;2023-03-14T06:43:41;1.05;;;0.30;;
43620;SDS011;29213;50.770;7.298;2023-03-14T06:46:07;0.88;;;0.47;;
43620;SDS011;29213;50.770;7.298;2023-03-14T06:48:32;0.70;;;0.40;;
43620;SDS011;29213;50.770;7.298;2023-03-14T06:50:58;0.30;;;0.30;;
43620;SDS011;29213;50.770;7.298;2023-03-14T06:53:23;0.40;;;0.30;;
43620;SDS011;29213;50.770;7.298;2023-03-14T06:55:48;0.65;;;0.32;;
43620;SDS011;29213;50.770;7.298;2023-03-14T06:58:14;1.08;;;0.35;;
43620;SDS011;29213;50.770;7.298;2023-03-14T07:00:40;0.38;;;0.30;;
43620;SDS011;29213;50.770;7.298;2023-03-14T07:03:05;0.65;;;0.40;;
43620;SDS011;29213;50.770;7.298;2023-03-14T07:05:31;1.02;;;0.30;;
43620;SDS011;29213;50.770;7.298;2023-03-14T07:07:56;0.65;;;0.40;;
43620;SDS011;29213;50.770;7.298;2023-03-14T07:10:21;0.52;;;0.30;;
43620;SDS011;29213;50.770;7.298;2023-03-14T07:12:47;0.57;;;0.40;;
43620;SDS011;29213;50.770;7.298;2023-03-14T07:15:12;0.40;;;0.40;;
43620;SDS011;29213;50.770;7.298;2023-03-14T07:17:38;1.15;;;0.50;;
43620;SDS011;29213;50.770;7.298;2023-03-14T07:20:03;1.00;;;0.45;;
43620;SDS011;29213;50.770;7.298;2023-03-14T07:22:29;1.10;;;0.50;;
43620;SDS011;29213;50.770;7.298;2023-03-14T07:24:55;0.90;;;0.40;;
43620;SDS011;29213;50.770;7.298;2023-03-14T07:27:21;0.65;;;0.45;;
43620;SDS011;29213;50.770;7.298;2023-03-14T07:29:46;0.52;;;0.40;;
43620;SDS011;29213;50.770;7.298;2023-03-14T07:32:12;0.40;;;0.30;;
43620;SDS011;29213;50.770;7.298;2023-03-14T07:34:40;0.30;;;0.30;;
43620;SDS011;29213;50.770;7.298;2023-03-14T07:37:06;1.05;;;0.40;;
43620;SDS011;29213;50.770;7.298;2023-03-14T07:39:31;0.68;;;0.40;;
43620;SDS011;29213;50.770;7.298;2023-03-14T07:41:57;0.60;;;0.40;;
43620;SDS011;29213;50.770;7.298;2023-03-14T07:44:22;0.40;;;0.40;;
43620;SDS011;29213;50.770;7.298;2023-03-14T07:46:48;2.90;;;0.50;;
43620;SDS011;29213;50.770;7.298;2023-03-14T07:49:13;0.82;;;0.40;;
43620;SDS011;29213;50.770;7.298;2023-03-14T07:51:38;0.90;;;0.40;;
43620;SDS011;29213;50.770;7.298;2023-03-14T07:54:04;2.00;;;0.50;;
43620;SDS011;29213;50.770;7.298;2023-03-14T07:56:29;0.52;;;0.30;;
43620;SDS011;29213;50.770;7.298;2023-03-14T07:58:56;0.52;;;0.40;;
43620;SDS011;29213;50.770;7.298;2023-03-14T08:01:21;1.13;;;0.40;;
43620;SDS011;29213;50.770;7.298;2023-03-14T08:03:47;0.90;;;0.40;;
43620;SDS011;29213;50.770;7.298;2023-03-14T08:06:12;0.60;;;0.40;;
43620;SDS011;29213;50.770;7.298;2023-03-14T08:08:37;1.60;;;0.40;;
43620;SDS011;29213;50.770;7.298;2023-03-14T08:11:04;0.43;;;0.40;;
43620;SDS011;29213;50.770;7.298;2023-03-14T08:13:30;0.95;;;0.43;;
43620;SDS011;29213;50.770;7.298;2023-03-14T08:15:56;0.80;;;0.50;;
43620;SDS011;29213;50.770;7.298;2023-03-14T08:18:24;0.32;;;0.30;;
43620;SDS011;29213;50.770;7.298;2023-03-14T08:20:49;0.98;;;0.50;;
43620;SDS011;29213;50.770;7.298;2023-03-14T08:23:15;0.30;;;0.30;;
43620;SDS011;29213;50.770;7.298;2023-03-14T08:25:40;0.43;;;0.40;;
43620;SDS011;29213;50.770;7.298;2023-03-14T08:28:05;0.40;;;0.40;;
43620;SDS011;29213;50.770;7.298;2023-03-14T08:30:31;1.65;;;0.40;;
43620;SDS011;29213;50.770;7.298;2023-03-14T08:32:57;3.63;;;1.00;;
43620;SDS011;29213;50.770;7.298;2023-03-14T08:35:23;2.17;;;0.50;;
43620;SDS011;29213;50.770;7.298;2023-03-14T08:37:48;1.13;;;0.25;;
43620;SDS011;29213;50.770;7.298;2023-03-14T08:40:14;0.30;;;0.30;;
43620;SDS011;29213;50.770;7.298;2023-03-14T08:42:40;1.17;;;0.40;;
43620;SDS011;29213;50.770;7.298;2023-03-14T08:45:06;0.63;;;0.30;;
43620;SDS011;29213;50.770;7.298;2023-03-14T08:47:33;0.25;;;0.25;;
43620;SDS011;29213;50.770;7.298;2023-03-14T08:49:59;0.52;;;0.50;;
43620;SDS011;29213;50.770;7.298;2023-03-14T08:52:24;1.35;;;0.70;;
43620;SDS011;29213;50.770;7.298;2023-03-14T08:54:49;0.63;;;0.40;;
43620;SDS011;29213;50.770;7.298;2023-03-14T08:57:15;0.60;;;0.30;;
43620;SDS011;29213;50.770;7.298;2023-03-14T08:59:40;0.35;;;0.30;;
43620;SDS011;29213;50.770;7.298;2023-03-14T09:02:06;0.68;;;0.25;;
43620;SDS011;29213;50.770;7.298;2023-03-14T09:04:32;0.77;;;0.40;;
43620;SDS011;29213;50.770;7.298;2023-03-14T09:06:58;1.92;;;0.60;;
43620;SDS011;29213;50.770;7.298;2023-03-14T09:09:24;0.28;;;0.28;;
43620;SDS011;29213;50.770;7.298;2023-03-14T09:11:52;0.30;;;0.30;;
43620;SDS011;29213;50.770;7.298;2023-03-14T09:14:17;1.73;;;0.40;;
43620;SDS011;29213;50.770;7.298;2023-03-14T09:16:43;0.20;;;0.20;;
43620;SDS011;29213;50.770;7.298;2023-03-14T09:19:08;0.80;;;0.50;;
43620;SDS011;29213;50.770;7.298;2023-03-14T09:21:33;0.47;;;0.20;;
43620;SDS011;29213;50.770;7.298;2023-03-14T09:23:59;0.70;;;0.50;;
43620;SDS011;29213;50.770;7.298;2023-03-14T09:26:24;0.65;;;0.30;;
43620;SDS011;29213;50.770;7.298;2023-03-14T09:28:50;0.30;;;0.30;;
43620;SDS011;29213;50.770;7.298;2023-03-14T09:31:15;0.60;;;0.30;;
43620;SDS011;29213;50.770;7.298;2023-03-14T09:33:41;0.20;;;0.20;;
43620;SDS011;29213;50.770;7.298;2023-03-14T09:36:06;1.02;;;1.02;;
43620;SDS011;29213;50.770;7.298;2023-03-14T09:38:33;0.32;;;0.30;;
43620;SDS011;29213;50.770;7.298;2023-03-14T09:41:00;0.30;;;0.30;;
43620;SDS011;29213;50.770;7.298;2023-03-14T09:43:31;1.30;;;0.40;;
43620;SDS011;29213;50.770;7.298;2023-03-14T09:46:00;0.50;;;0.30;;
43620;SDS011;29213;50.770;7.298;2023-03-14T09:48:29;1.55;;;0.50;;
43620;SDS011;29213;50.770;7.298;2023-03-14T09:50:57;1.08;;;0.50;;
43620;SDS011;29213;50.770;7.298;2023-03-14T09:53:28;0.80;;;0.40;;
43620;SDS011;29213;50.770;7.298;2023-03-14T09:56:02;0.52;;;0.38;;
43620;SDS011;29213;50.770;7.298;2023-03-14T09:58:28;0.98;;;0.32;;
43620;SDS011;29213;50.770;7.298;2023-03-14T10:00:55;0.40;;;0.40;;
43620;SDS011;29213;50.770;7.298;2023-03-14T10:03:29;0.75;;;0.45;;
43620;SDS011;29213;50.770;7.298;2023-03-14T10:05:57;0.75;;;0.30;;
43620;SDS011;29213;50.770;7.298;2023-03-14T10:08:23;0.35;;;0.30;;
43620;SDS011;29213;50.770;7.298;2023-03-14T10:10:48;2.75;;;0.52;;
43620;SDS011;29213;50.770;7.298;2023-03-14T10:13:18;1.85;;;0.65;;
43620;SDS011;29213;50.770;7.298;2023-03-14T10:15:54;2.00;;;0.90;;
43620;SDS011;29213;50.770;7.298;2023-03-14T10:18:24;1.02;;;0.60;;
43620;SDS011;29213;50.770;7.298;2023-03-14T10:20:52;2.30;;;0.90;;
43620;SDS011;29213;50.770;7.298;2023-03-14T10:23:29;1.33;;;0.80;;
43620;SDS011;29213;50.770;7.298;2023-03-14T10:26:03;2.33;;;1.00;;
43620;SDS011;29213;50.770;7.298;2023-03-14T10:28:37;3.13;;;0.95;;
43620;SDS011;29213;50.770;7.298;2023-03-14T10:31:05;2.63;;;1.10;;
43620;SDS011;29213;50.770;7.298;2023-03-14T10:33:32;3.33;;;1.20;;
43620;SDS011;29213;50.770;7.298;2023-03-14T10:36:03;2.70;;;1.20;;
43620;SDS011;29213;50.770;7.298;2023-03-14T10:38:35;2.90;;;1.20;;
43620;SDS011;29213;50.770;7.298;2023-03-14T10:41:03;3.00;;;1.00;;
43620;SDS011;29213;50.770;7.298;2023-03-14T10:43:41;2.33;;;0.95;;
43620;SDS011;29213;50.770;7.298;2023-03-14T10:46:13;1.63;;;0.80;;
43620;SDS011;29213;50.770;7.298;2023-03-14T10:48:40;1.85;;;0.90;;
43620;SDS011;29213;50.770;7.298;2023-03-14T10:53:45;2.13;;;0.82;;
43620;SDS011;29213;50.770;7.298;2023-03-14T10:56:33;2.85;;;1.17;;
43620;SDS011;29213;50.770;7.298;2023-03-14T10:59:01;2.10;;;1.10;;
43620;SDS011;29213;50.770;7.298;2023-03-14T11:04:35;4.10;;;1.30;;
43620;SDS011;29213;50.770;7.298;2023-03-14T11:07:36;2.50;;;1.10;;
43620;SDS011;29213;50.770;7.298;2023-03-14T11:12:51;4.60;;;1.23;;
43620;SDS011;29213;50.770;7.298;2023-03-14T11:15:41;3.28;;;1.08;;
43620;SDS011;29213;50.770;7.298;2023-03-14T11:20:58;3.15;;;1.20;;
43620;SDS011;29213;50.770;7.298;2023-03-14T11:26:37;3.40;;;0.98;;
43620;SDS011;29213;50.770;7.298;2023-03-14T11:31:46;2.50;;;0.90;;
43620;SDS011;29213;50.770;7.298;2023-03-14T11:39:23;2.30;;;0.88;;
43620;SDS011;29213;50.770;7.298;2023-03-14T11:41:54;2.30;;;0.80;;
43620;SDS011;29213;50.770;7.298;2023-03-14T11:44:27;3.10;;;1.10;;
43620;SDS011;29213;50.770;7.298;2023-03-14T11:49:50;3.95;;;1.10;;
43620;SDS011;29213;50.770;7.298;2023-03-14T11:53:08;2.63;;;1.02;;
43620;SDS011;29213;50.770;7.298;2023-03-14T11:55:24;2.55;;;1.00;;
43620;SDS011;29213;50.770;7.298;2023-03-14T11:57:53;2.90;;;1.10;;
43620;SDS011;29213;50.770;7.298;2023-03-14T12:00:23;3.53;;;1.52;;
43620;SDS011;29213;50.770;7.298;2023-03-14T12:13:39;3.55;;;1.52;;
43620;SDS011;29213;50.770;7.298;2023-03-14T12:16:52;4.88;;;1.40;;
43620;SDS011;29213;50.770;7.298;2023-03-14T12:18:51;2.08;;;0.77;;
43620;SDS011;29213;50.770;7.298;2023-03-14T12:21:18;2.25;;;0.50;;
43620;SDS011;29213;50.770;7.298;2023-03-14T12:23:48;0.40;;;0.40;;
43620;SDS011;29213;50.770;7.298;2023-03-14T12:26:18;1.73;;;0.50;;
43620;SDS011;29213;50.770;7.298;2023-03-14T12:28:51;0.77;;;0.50;;
43620;SDS011;29213;50.770;7.298;2023-03-14T12:47:56;2.90;;;0.70;;
43620;SDS011;29213;50.770;7.298;2023-03-14T12:50:35;2.47;;;0.90;;
43620;SDS011;29213;50.770;7.298;2023-03-14T12:53:15;3.13;;;0.98;;
43620;SDS011;29213;50.770;7.298;2023-03-14T12:56:25;2.78;;;1.13;;
43620;SDS011;29213;50.770;7.298;2023-03-14T13:02:09;2.80;;;1.23;;
43620;SDS011;29213;50.770;7.298;2023-03-14T13:13:03;4.82;;;2.60;;
43620;SDS011;29213;50.770;7.298;2023-03-14T13:15:48;5.60;;;2.30;;
43620;SDS011;29213;50.770;7.298;2023-03-14T13:18:40;3.92;;;2.03;;
43620;SDS011;29213;50.770;7.298;2023-03-14T13:21:19;3.92;;;2.60;;
43620;SDS011;29213;50.770;7.298;2023-03-14T13:23:57;4.97;;;2.88;;
43620;SDS011;29213;50.770;7.298;2023-03-14T13:26:35;5.25;;;3.00;;
43620;SDS011;29213;50.770;7.298;2023-03-14T13:29:16;4.88;;;3.20;;
43620;SDS011;29213;50.770;7.298;2023-03-14T13:31:53;8.13;;;2.65;;
43620;SDS011;29213;50.770;7.298;2023-03-14T13:34:24;5.45;;;2.63;;
43620;SDS011;29213;50.770;7.298;2023-03-14T13:36:53;5.95;;;2.58;;
43620;SDS011;29213;50.770;7.298;2023-03-14T13:39:20;5.55;;;2.45;;
43620;SDS011;29213;50.770;7.298;2023-03-14T13:41:49;4.88;;;2.28;;
43620;SDS011;29213;50.770;7.298;2023-03-14T13:44:24;5.57;;;2.10;;
43620;SDS011;29213;50.770;7.298;2023-03-14T13:46:52;4.68;;;1.90;;
43620;SDS011;29213;50.770;7.298;2023-03-14T13:49:23;4.05;;;1.67;;
43620;SDS011;29213;50.770;7.298;2023-03-14T13:51:50;5.18;;;1.80;;
43620;SDS011;29213;50.770;7.298;2023-03-14T13:54:17;5.13;;;2.08;;
43620;SDS011;29213;50.770;7.298;2023-03-14T13:56:44;5.40;;;2.10;;
43620;SDS011;29213;50.770;7.298;2023-03-14T13:59:20;3.92;;;1.98;;
43620;SDS011;29213;50.770;7.298;2023-03-14T14:01:49;4.50;;;2.13;;
43620;SDS011;29213;50.770;7.298;2023-03-14T14:04:18;3.95;;;1.80;;
43620;SDS011;29213;50.770;7.298;2023-03-14T14:09:24;4.45;;;1.67;;
43620;SDS011;29213;50.770;7.298;2023-03-14T14:12:03;3.70;;;1.35;;
43620;SDS011;29213;50.770;7.298;2023-03-14T14:14:35;4.20;;;1.52;;
43620;SDS011;29213;50.770;7.298;2023-03-14T14:17:05;5.88;;;1.83;;
43620;SDS011;29213;50.770;7.298;2023-03-14T14:19:34;5.13;;;1.50;;
43620;SDS011;29213;50.770;7.298;2023-03-14T14:22:02;4.35;;;1.48;;
43620;SDS011;29213;50.770;7.298;2023-03-14T14:24:30;4.70;;;1.55;;
43620;SDS011;29213;50.770;7.298;2023-03-14T14:27:01;4.00;;;1.65;;
43620;SDS011;29213;50.770;7.298;2023-03-14T14:29:33;4.68;;;1.52;;
43620;SDS011;29213;50.770;7.298;2023-03-14T14:32:17;4.50;;;1.20;;
43620;SDS011;29213;50.770;7.298;2023-03-14T14:34:44;4.45;;;1.27;;
43620;SDS011;29213;50.770;7.298;2023-03-14T14:37:23;6.13;;;1.80;;
43620;SDS011;29213;50.770;7.298;2023-03-14T14:39:51;4.38;;;1.60;;
43620;SDS011;29213;50.770;7.298;2023-03-14T14:42:19;4.53;;;1.80;;
43620;SDS011;29213;50.770;7.298;2023-03-14T14:44:49;3.92;;;1.95;;
43620;SDS011;29213;50.770;7.298;2023-03-14T14:47:17;6.97;;;2.45;;
43620;SDS011;29213;50.770;7.298;2023-03-14T14:49:46;4.85;;;2.17;;
43620;SDS011;29213;50.770;7.298;2023-03-14T14:52:14;6.45;;;2.20;;
43620;SDS011;29213;50.770;7.298;2023-03-14T14:54:46;7.25;;;2.42;;
43620;SDS011;29213;50.770;7.298;2023-03-14T14:59:49;8.25;;;2.85;;
43620;SDS011;29213;50.770;7.298;2023-03-14T15:05:16;5.60;;;2.75;;
43620;SDS011;29213;50.770;7.298;2023-03-14T15:07:43;5.97;;;2.58;;
43620;SDS011;29213;50.770;7.298;2023-03-14T15:10:10;7.78;;;2.38;;
43620;SDS011;29213;50.770;7.298;2023-03-14T15:12:37;8.00;;;2.45;;
43620;SDS011;29213;50.770;7.298;2023-03-14T15:15:02;9.27;;;2.40;;
43620;SDS011;29213;50.770;7.298;2023-03-14T15:17:28;6.55;;;2.00;;
43620;SDS011;29213;50.770;7.298;2023-03-14T15:19:53;8.65;;;2.60;;
43620;SDS011;29213;50.770;7.298;2023-03-14T15:22:20;7.85;;;2.70;;
43620;SDS011;29213;50.770;7.298;2023-03-14T15:24:45;7.07;;;2.80;;
43620;SDS011;29213;50.770;7.298;2023-03-14T15:27:12;6.57;;;2.88;;
43620;SDS011;29213;50.770;7.298;2023-03-14T15:29:40;12.02;;;3.55;;
43620;SDS011;29213;50.770;7.298;2023-03-14T15:32:05;12.23;;;3.53;;
43620;SDS011;29213;50.770;7.298;2023-03-14T15:34:34;12.00;;;3.58;;
43620;SDS011;29213;50.770;7.298;2023-03-14T15:37:00;10.68;;;3.22;;
43620;SDS011;29213;50.770;7.298;2023-03-14T15:39:28;8.27;;;3.28;;
43620;SDS011;29213;50.770;7.298;2023-03-14T15:41:53;9.95;;;3.05;;
43620;SDS011;29213;50.770;7.298;2023-03-14T15:44:18;7.40;;;2.83;;
43620;SDS011;29213;50.770;7.298;2023-03-14T15:46:44;9.10;;;2.90;;
43620;SDS011;29213;50.770;7.298;2023-03-14T15:49:09;13.57;;;3.35;;
43620;SDS011;29213;50.770;7.298;2023-03-14T15:51:34;12.82;;;3.58;;
43620;SDS011;29213;50.770;7.298;2023-03-14T15:54:00;7.88;;;2.75;;
43620;SDS011;29213;50.770;7.298;2023-03-14T15:56:25;10.52;;;2.95;;
43620;SDS011;29213;50.770;7.298;2023-03-14T15:58:52;8.80;;;2.67;;
43620;SDS011;29213;50.770;7.298;2023-03-14T16:01:18;10.05;;;2.78;;
43620;SDS011;29213;50.770;7.298;2023-03-14T16:03:44;8.57;;;2.58;;
43620;SDS011;29213;50.770;7.298;2023-03-14T16:06:14;7.55;;;2.13;;
43620;SDS011;29213;50.770;7.298;2023-03-14T16:08:40;6.47;;;2.17;;
43620;SDS011;29213;50.770;7.298;2023-03-14T16:11:08;8.32;;;2.50;;
43620;SDS011;29213;50.770;7.298;2023-03-14T16:13:35;10.90;;;2.50;;
43620;SDS011;29213;50.770;7.298;2023-03-14T16:16:01;7.55;;;2.38;;